sensor_id;sensor_type;location;lat;lon;timestamp;P1;durP1;ratioP1;P2;durP2;ratioP2
57023;SDS011;42916;54.346;18.562;2024-02-16T00:01:54;33.60;;;16.80;;
57023;SDS011;42916;54.346;18.562;2024-02-16T00:04:20;31.30;;;16.80;;
57023;SDS011;42916;54.346;18.562;2024-02-16T00:06:48;28.80;;;15.20;;
57023;SDS011;42916;54.346;18.562;2024-02-16T00:09:15;30.90;;;15.20;;
57023;SDS011;42916;54.346;18.562;2024-02-16T00:11:43;29.40;;;15.50;;
57023;SDS011;42916;54.346;18.562;2024-02-16T00:14:09;31.80;;;15.60;;
57023;SDS011;42916;54.346;18.562;2024-02-16T00:16:36;33.00;;;16.30;;
57023;SDS011;42916;54.346;18.562;2024-02-16T00:19:03;30.60;;;16.00;;
57023;SDS011;42916;54.346;18.562;2024-02-16T00:21:30;28.80;;;15.90;;
57023;SDS011;42916;54.346;18.562;2024-02-16T00:23:57;30.00;;;15.50;;
57023;SDS011;42916;54.346;18.562;2024-02-16T00:26:25;29.80;;;15.90;;
57023;SDS011;42916;54.346;18.562;2024-02-16T00:28:52;26.90;;;15.30;;
57023;SDS011;42916;54.346;18.562;2024-02-16T00:31:19;28.20;;;15.80;;
57023;SDS011;42916;54.346;18.562;2024-02-16T00:33:46;29.90;;;15.80;;
57023;SDS011;42916;54.346;18.562;2024-02-16T00:36:14;26.60;;;14.80;;
57023;SDS011;42916;54.346;18.562;2024-02-16T00:38:41;27.00;;;14.30;;
57023;SDS011;42916;54.346;18.562;2024-02-16T00:41:16;27.90;;;14.70;;
57023;SDS011;42916;54.346;18.562;2024-02-16T00:43:44;24.40;;;13.70;;
57023;SDS011;42916;54.346;18.562;2024-02-16T00:46:11;27.10;;;14.30;;
57023;SDS011;42916;54.346;18.562;2024-02-16T00:48:40;28.60;;;15.50;;
57023;SDS011;42916;54.346;18.562;2024-02-16T00:51:06;25.40;;;13.90;;
57023;SDS011;42916;54.346;18.562;2024-02-16T00:53:33;26.00;;;14.30;;
57023;SDS011;42916;54.346;18.562;2024-02-16T00:56:00;29.20;;;15.10;;
57023;SDS011;42916;54.346;18.562;2024-02-16T00:58:27;25.30;;;13.90;;
57023;SDS011;42916;54.346;18.562;2024-02-16T01:00:54;30.10;;;15.60;;
57023;SDS011;42916;54.346;18.562;2024-02-16T01:03:21;30.10;;;15.70;;
57023;SDS011;42916;54.346;18.562;2024-02-16T01:05:49;26.50;;;15.20;;
57023;SDS011;42916;54.346;18.562;2024-02-16T01:08:16;26.90;;;14.00;;
57023;SDS011;42916;54.346;18.562;2024-02-16T01:10:43;26.40;;;14.10;;
57023;SDS011;42916;54.346;18.562;2024-02-16T01:13:10;28.10;;;14.60;;
57023;SDS011;42916;54.346;18.562;2024-02-16T01:15:37;27.40;;;14.80;;
57023;SDS011;42916;54.346;18.562;2024-02-16T01:18:04;25.90;;;15.30;;
57023;SDS011;42916;54.346;18.562;2024-02-16T01:20:32;26.40;;;14.50;;
57023;SDS011;42916;54.346;18.562;2024-02-16T01:22:58;28.60;;;14.80;;
57023;SDS011;42916;54.346;18.562;2024-02-16T01:25:25;28.20;;;15.60;;
57023;SDS011;42916;54.346;18.562;2024-02-16T01:27:52;29.70;;;15.30;;
57023;SDS011;42916;54.346;18.562;2024-02-16T01:30:19;27.10;;;14.70;;
57023;SDS011;42916;54.346;18.562;2024-02-16T01:32:46;29.30;;;14.50;;
57023;SDS011;42916;54.346;18.562;2024-02-16T01:35:13;28.00;;;15.70;;
57023;SDS011;42916;54.346;18.562;2024-02-16T01:37:43;32.20;;;17.60;;
57023;SDS011;42916;54.346;18.562;2024-02-16T01:40:10;32.50;;;16.10;;
57023;SDS011;42916;54.346;18.562;2024-02-16T01:42:44;31.30;;;15.50;;
57023;SDS011;42916;54.346;18.562;2024-02-16T01:45:10;35.80;;;17.70;;
57023;SDS011;42916;54.346;18.562;2024-02-16T01:47:39;33.50;;;16.30;;
57023;SDS011;42916;54.346;18.562;2024-02-16T01:50:09;32.90;;;16.30;;
57023;SDS011;42916;54.346;18.562;2024-02-16T01:52:36;37.10;;;17.10;;
57023;SDS011;42916;54.346;18.562;2024-02-16T01:55:04;36.70;;;17.40;;
57023;SDS011;42916;54.346;18.562;2024-02-16T01:57:45;38.70;;;18.00;;
57023;SDS011;42916;54.346;18.562;2024-02-16T02:00:14;36.20;;;17.40;;
57023;SDS011;42916;54.346;18.562;2024-02-16T02:02:41;38.00;;;18.90;;
57023;SDS011;42916;54.346;18.562;2024-02-16T02:05:11;39.00;;;18.20;;
57023;SDS011;42916;54.346;18.562;2024-02-16T02:07:39;37.70;;;18.30;;
57023;SDS011;42916;54.346;18.562;2024-02-16T02:10:05;40.00;;;18.40;;
57023;SDS011;42916;54.346;18.562;2024-02-16T02:12:33;37.80;;;18.00;;
57023;SDS011;42916;54.346;18.562;2024-02-16T02:15:00;43.00;;;18.70;;
57023;SDS011;42916;54.346;18.562;2024-02-16T02:17:27;41.40;;;18.90;;
57023;SDS011;42916;54.346;18.562;2024-02-16T02:19:55;39.40;;;18.40;;
57023;SDS011;42916;54.346;18.562;2024-02-16T02:22:23;41.50;;;19.40;;
57023;SDS011;42916;54.346;18.562;2024-02-16T02:24:49;46.80;;;18.60;;
57023;SDS011;42916;54.346;18.562;2024-02-16T02:27:16;41.90;;;19.10;;
57023;SDS011;42916;54.346;18.562;2024-02-16T02:29:43;41.40;;;18.00;;
57023;SDS011;42916;54.346;18.562;2024-02-16T02:32:10;40.90;;;17.70;;
57023;SDS011;42916;54.346;18.562;2024-02-16T02:34:38;45.00;;;19.80;;
57023;SDS011;42916;54.346;18.562;2024-02-16T02:37:05;45.50;;;18.90;;
57023;SDS011;42916;54.346;18.562;2024-02-16T02:39:32;43.40;;;19.20;;
57023;SDS011;42916;54.346;18.562;2024-02-16T02:41:59;45.70;;;19.40;;
57023;SDS011;42916;54.346;18.562;2024-02-16T02:44:26;40.20;;;18.30;;
57023;SDS011;42916;54.346;18.562;2024-02-16T02:46:53;42.40;;;18.80;;
57023;SDS011;42916;54.346;18.562;2024-02-16T02:49:19;45.20;;;17.80;;
57023;SDS011;42916;54.346;18.562;2024-02-16T02:51:46;43.20;;;20.30;;
57023;SDS011;42916;54.346;18.562;2024-02-16T02:54:13;42.10;;;18.40;;
57023;SDS011;42916;54.346;18.562;2024-02-16T02:56:41;46.60;;;21.00;;
57023;SDS011;42916;54.346;18.562;2024-02-16T02:59:08;43.70;;;19.50;;
57023;SDS011;42916;54.346;18.562;2024-02-16T03:01:36;52.20;;;22.20;;
57023;SDS011;42916;54.346;18.562;2024-02-16T03:04:03;50.30;;;21.80;;
57023;SDS011;42916;54.346;18.562;2024-02-16T03:06:30;48.00;;;20.80;;
57023;SDS011;42916;54.346;18.562;2024-02-16T03:08:59;49.20;;;20.90;;
57023;SDS011;42916;54.346;18.562;2024-02-16T03:11:25;44.50;;;19.00;;
57023;SDS011;42916;54.346;18.562;2024-02-16T03:13:53;54.90;;;21.60;;
57023;SDS011;42916;54.346;18.562;2024-02-16T03:16:20;49.10;;;22.00;;
57023;SDS011;42916;54.346;18.562;2024-02-16T03:18:48;52.00;;;20.30;;
57023;SDS011;42916;54.346;18.562;2024-02-16T03:21:16;48.30;;;20.70;;
57023;SDS011;42916;54.346;18.562;2024-02-16T03:23:43;46.70;;;21.10;;
57023;SDS011;42916;54.346;18.562;2024-02-16T03:26:19;46.60;;;19.10;;
57023;SDS011;42916;54.346;18.562;2024-02-16T03:28:47;45.20;;;20.80;;
57023;SDS011;42916;54.346;18.562;2024-02-16T03:31:16;49.30;;;20.80;;
57023;SDS011;42916;54.346;18.562;2024-02-16T03:33:43;54.50;;;22.50;;
57023;SDS011;42916;54.346;18.562;2024-02-16T03:36:10;46.40;;;20.70;;
57023;SDS011;42916;54.346;18.562;2024-02-16T03:38:45;51.10;;;21.40;;
57023;SDS011;42916;54.346;18.562;2024-02-16T03:41:13;48.80;;;20.60;;
57023;SDS011;42916;54.346;18.562;2024-02-16T03:43:41;51.10;;;20.90;;
57023;SDS011;42916;54.346;18.562;2024-02-16T03:46:09;50.20;;;20.90;;
57023;SDS011;42916;54.346;18.562;2024-02-16T03:48:36;53.00;;;23.20;;
57023;SDS011;42916;54.346;18.562;2024-02-16T03:51:03;51.90;;;22.70;;
57023;SDS011;42916;54.346;18.562;2024-02-16T03:53:30;53.60;;;23.60;;
57023;SDS011;42916;54.346;18.562;2024-02-16T03:55:57;54.50;;;23.80;;
57023;SDS011;42916;54.346;18.562;2024-02-16T03:58:24;51.10;;;21.00;;
57023;SDS011;42916;54.346;18.562;2024-02-16T04:00:51;51.90;;;22.40;;
57023;SDS011;42916;54.346;18.562;2024-02-16T04:03:19;53.00;;;23.70;;
57023;SDS011;42916;54.346;18.562;2024-02-16T04:05:46;55.00;;;23.00;;
57023;SDS011;42916;54.346;18.562;2024-02-16T04:08:12;58.20;;;24.10;;
57023;SDS011;42916;54.346;18.562;2024-02-16T04:10:39;49.80;;;23.30;;
57023;SDS011;42916;54.346;18.562;2024-02-16T04:13:06;52.80;;;24.70;;
57023;SDS011;42916;54.346;18.562;2024-02-16T04:15:33;54.60;;;24.30;;
57023;SDS011;42916;54.346;18.562;2024-02-16T04:18:01;51.50;;;21.90;;
57023;SDS011;42916;54.346;18.562;2024-02-16T04:20:28;54.10;;;23.80;;
57023;SDS011;42916;54.346;18.562;2024-02-16T04:22:54;56.10;;;22.90;;
57023;SDS011;42916;54.346;18.562;2024-02-16T04:25:22;48.90;;;21.90;;
57023;SDS011;42916;54.346;18.562;2024-02-16T04:27:48;59.10;;;26.90;;
57023;SDS011;42916;54.346;18.562;2024-02-16T04:30:15;51.90;;;23.50;;
57023;SDS011;42916;54.346;18.562;2024-02-16T04:32:42;48.90;;;22.10;;
57023;SDS011;42916;54.346;18.562;2024-02-16T04:35:09;55.10;;;23.70;;
57023;SDS011;42916;54.346;18.562;2024-02-16T04:37:39;57.60;;;24.10;;
57023;SDS011;42916;54.346;18.562;2024-02-16T04:40:06;53.80;;;24.00;;
57023;SDS011;42916;54.346;18.562;2024-02-16T04:42:34;54.10;;;26.30;;
57023;SDS011;42916;54.346;18.562;2024-02-16T04:45:01;51.30;;;22.30;;
57023;SDS011;42916;54.346;18.562;2024-02-16T04:47:29;49.40;;;22.70;;
57023;SDS011;42916;54.346;18.562;2024-02-16T04:49:56;51.70;;;24.40;;
57023;SDS011;42916;54.346;18.562;2024-02-16T04:52:22;49.60;;;23.00;;
57023;SDS011;42916;54.346;18.562;2024-02-16T04:54:50;49.10;;;23.30;;
57023;SDS011;42916;54.346;18.562;2024-02-16T04:57:16;46.00;;;21.30;;
57023;SDS011;42916;54.346;18.562;2024-02-16T04:59:43;53.20;;;25.30;;
57023;SDS011;42916;54.346;18.562;2024-02-16T05:02:10;54.40;;;24.80;;
57023;SDS011;42916;54.346;18.562;2024-02-16T05:04:37;47.20;;;22.80;;
57023;SDS011;42916;54.346;18.562;2024-02-16T05:07:06;53.30;;;24.50;;
57023;SDS011;42916;54.346;18.562;2024-02-16T05:09:34;53.40;;;22.50;;
57023;SDS011;42916;54.346;18.562;2024-02-16T05:12:01;44.60;;;21.80;;
57023;SDS011;42916;54.346;18.562;2024-02-16T05:14:28;50.80;;;23.70;;
57023;SDS011;42916;54.346;18.562;2024-02-16T05:16:55;49.50;;;23.50;;
57023;SDS011;42916;54.346;18.562;2024-02-16T05:19:22;50.10;;;23.30;;
57023;SDS011;42916;54.346;18.562;2024-02-16T05:21:48;49.40;;;23.20;;
57023;SDS011;42916;54.346;18.562;2024-02-16T05:24:15;49.80;;;24.00;;
57023;SDS011;42916;54.346;18.562;2024-02-16T05:26:42;46.40;;;23.30;;
57023;SDS011;42916;54.346;18.562;2024-02-16T05:29:09;48.90;;;23.30;;
57023;SDS011;42916;54.346;18.562;2024-02-16T05:31:36;49.80;;;23.70;;
57023;SDS011;42916;54.346;18.562;2024-02-16T05:34:02;50.80;;;23.10;;
57023;SDS011;42916;54.346;18.562;2024-02-16T05:36:29;50.90;;;23.50;;
57023;SDS011;42916;54.346;18.562;2024-02-16T05:39:01;54.10;;;26.00;;
57023;SDS011;42916;54.346;18.562;2024-02-16T05:41:46;53.60;;;24.60;;
57023;SDS011;42916;54.346;18.562;2024-02-16T05:44:13;46.40;;;23.00;;
57023;SDS011;42916;54.346;18.562;2024-02-16T05:46:40;54.20;;;25.70;;
57023;SDS011;42916;54.346;18.562;2024-02-16T05:49:06;54.80;;;25.50;;
57023;SDS011;42916;54.346;18.562;2024-02-16T05:51:39;47.80;;;24.60;;
57023;SDS011;42916;54.346;18.562;2024-02-16T05:54:07;44.20;;;22.20;;
57023;SDS011;42916;54.346;18.562;2024-02-16T05:56:34;54.80;;;26.00;;
57023;SDS011;42916;54.346;18.562;2024-02-16T05:59:03;54.80;;;27.90;;
57023;SDS011;42916;54.346;18.562;2024-02-16T06:01:30;57.50;;;28.60;;
57023;SDS011;42916;54.346;18.562;2024-02-16T06:03:56;58.00;;;28.30;;
57023;SDS011;42916;54.346;18.562;2024-02-16T06:06:23;59.50;;;29.40;;
57023;SDS011;42916;54.346;18.562;2024-02-16T06:08:50;53.70;;;26.00;;
57023;SDS011;42916;54.346;18.562;2024-02-16T06:11:16;53.50;;;26.30;;
57023;SDS011;42916;54.346;18.562;2024-02-16T06:13:43;50.10;;;25.20;;
57023;SDS011;42916;54.346;18.562;2024-02-16T06:16:10;52.50;;;25.70;;
57023;SDS011;42916;54.346;18.562;2024-02-16T06:18:36;53.80;;;27.30;;
57023;SDS011;42916;54.346;18.562;2024-02-16T06:21:03;56.00;;;25.90;;
57023;SDS011;42916;54.346;18.562;2024-02-16T06:23:30;52.70;;;26.60;;
57023;SDS011;42916;54.346;18.562;2024-02-16T06:25:57;51.70;;;26.40;;
57023;SDS011;42916;54.346;18.562;2024-02-16T06:28:24;49.70;;;24.80;;
57023;SDS011;42916;54.346;18.562;2024-02-16T06:30:51;52.00;;;26.30;;
57023;SDS011;42916;54.346;18.562;2024-02-16T06:33:17;50.30;;;25.80;;
57023;SDS011;42916;54.346;18.562;2024-02-16T06:35:46;51.30;;;25.90;;
57023;SDS011;42916;54.346;18.562;2024-02-16T06:38:14;50.10;;;25.40;;
57023;SDS011;42916;54.346;18.562;2024-02-16T06:40:41;52.40;;;27.30;;
57023;SDS011;42916;54.346;18.562;2024-02-16T06:43:08;54.40;;;27.20;;
57023;SDS011;42916;54.346;18.562;2024-02-16T06:45:35;50.10;;;26.00;;
57023;SDS011;42916;54.346;18.562;2024-02-16T06:48:02;51.00;;;25.80;;
57023;SDS011;42916;54.346;18.562;2024-02-16T06:50:29;46.80;;;25.10;;
57023;SDS011;42916;54.346;18.562;2024-02-16T06:52:56;52.80;;;28.30;;
57023;SDS011;42916;54.346;18.562;2024-02-16T06:55:22;51.60;;;27.50;;
57023;SDS011;42916;54.346;18.562;2024-02-16T06:57:49;52.70;;;27.70;;
57023;SDS011;42916;54.346;18.562;2024-02-16T07:00:17;54.40;;;28.80;;
57023;SDS011;42916;54.346;18.562;2024-02-16T07:02:46;52.70;;;28.00;;
57023;SDS011;42916;54.346;18.562;2024-02-16T07:05:14;43.00;;;25.60;;
57023;SDS011;42916;54.346;18.562;2024-02-16T07:07:42;57.70;;;27.80;;
57023;SDS011;42916;54.346;18.562;2024-02-16T07:10:09;46.80;;;25.40;;
57023;SDS011;42916;54.346;18.562;2024-02-16T07:12:39;50.90;;;26.80;;
57023;SDS011;42916;54.346;18.562;2024-02-16T07:15:07;50.30;;;27.00;;
57023;SDS011;42916;54.346;18.562;2024-02-16T07:17:35;46.70;;;26.80;;
57023;SDS011;42916;54.346;18.562;2024-02-16T07:20:02;53.70;;;28.30;;
57023;SDS011;42916;54.346;18.562;2024-02-16T07:22:33;48.70;;;26.60;;
57023;SDS011;42916;54.346;18.562;2024-02-16T07:25:00;44.60;;;26.50;;
57023;SDS011;42916;54.346;18.562;2024-02-16T07:27:27;51.50;;;26.50;;
57023;SDS011;42916;54.346;18.562;2024-02-16T07:29:53;48.20;;;26.70;;
57023;SDS011;42916;54.346;18.562;2024-02-16T07:32:20;54.00;;;28.70;;
57023;SDS011;42916;54.346;18.562;2024-02-16T07:34:47;45.40;;;26.00;;
57023;SDS011;42916;54.346;18.562;2024-02-16T07:37:14;46.50;;;26.60;;
57023;SDS011;42916;54.346;18.562;2024-02-16T07:39:42;43.30;;;24.00;;
57023;SDS011;42916;54.346;18.562;2024-02-16T07:42:09;49.00;;;26.80;;
57023;SDS011;42916;54.346;18.562;2024-02-16T07:44:36;45.20;;;24.70;;
57023;SDS011;42916;54.346;18.562;2024-02-16T07:47:05;43.80;;;24.90;;
57023;SDS011;42916;54.346;18.562;2024-02-16T07:49:32;42.50;;;24.50;;
57023;SDS011;42916;54.346;18.562;2024-02-16T07:51:58;42.40;;;25.50;;
57023;SDS011;42916;54.346;18.562;2024-02-16T07:54:29;41.30;;;25.20;;
57023;SDS011;42916;54.346;18.562;2024-02-16T07:56:56;72.70;;;27.70;;
57023;SDS011;42916;54.346;18.562;2024-02-16T07:59:25;39.00;;;24.00;;
57023;SDS011;42916;54.346;18.562;2024-02-16T08:01:52;38.40;;;22.50;;
57023;SDS011;42916;54.346;18.562;2024-02-16T08:04:19;41.80;;;22.80;;
57023;SDS011;42916;54.346;18.562;2024-02-16T08:06:46;50.50;;;24.50;;
57023;SDS011;42916;54.346;18.562;2024-02-16T08:09:13;54.40;;;24.80;;
57023;SDS011;42916;54.346;18.562;2024-02-16T08:11:40;38.30;;;23.20;;
57023;SDS011;42916;54.346;18.562;2024-02-16T08:14:08;37.10;;;22.80;;
57023;SDS011;42916;54.346;18.562;2024-02-16T08:16:36;49.50;;;26.20;;
57023;SDS011;42916;54.346;18.562;2024-02-16T08:19:03;40.10;;;24.60;;
57023;SDS011;42916;54.346;18.562;2024-02-16T08:21:30;41.30;;;23.80;;
57023;SDS011;42916;54.346;18.562;2024-02-16T08:23:57;36.50;;;23.20;;
57023;SDS011;42916;54.346;18.562;2024-02-16T08:26:24;38.10;;;23.10;;
57023;SDS011;42916;54.346;18.562;2024-02-16T08:28:51;34.50;;;21.30;;
57023;SDS011;42916;54.346;18.562;2024-02-16T08:31:18;39.50;;;24.70;;
57023;SDS011;42916;54.346;18.562;2024-02-16T08:33:45;36.00;;;23.60;;
57023;SDS011;42916;54.346;18.562;2024-02-16T08:36:13;34.80;;;22.60;;
57023;SDS011;42916;54.346;18.562;2024-02-16T08:38:40;33.40;;;22.80;;
57023;SDS011;42916;54.346;18.562;2024-02-16T08:41:09;38.90;;;23.70;;
57023;SDS011;42916;54.346;18.562;2024-02-16T08:43:36;40.40;;;22.60;;
57023;SDS011;42916;54.346;18.562;2024-02-16T08:46:03;48.40;;;25.00;;
57023;SDS011;42916;54.346;18.562;2024-02-16T08:48:30;36.90;;;21.60;;
57023;SDS011;42916;54.346;18.562;2024-02-16T08:50:57;140.60;;;32.20;;
57023;SDS011;42916;54.346;18.562;2024-02-16T08:53:24;42.10;;;22.20;;
57023;SDS011;42916;54.346;18.562;2024-02-16T08:55:51;38.60;;;22.20;;
57023;SDS011;42916;54.346;18.562;2024-02-16T08:58:18;40.60;;;23.10;;
57023;SDS011;42916;54.346;18.562;2024-02-16T09:00:46;76.40;;;26.00;;
57023;SDS011;42916;54.346;18.562;2024-02-16T09:03:15;40.90;;;21.40;;
57023;SDS011;42916;54.346;18.562;2024-02-16T09:05:42;36.10;;;22.10;;
57023;SDS011;42916;54.346;18.562;2024-02-16T09:08:10;34.70;;;23.00;;
57023;SDS011;42916;54.346;18.562;2024-02-16T09:10:38;35.40;;;23.50;;
57023;SDS011;42916;54.346;18.562;2024-02-16T09:13:08;35.70;;;20.90;;
57023;SDS011;42916;54.346;18.562;2024-02-16T09:15:36;35.70;;;22.60;;
57023;SDS011;42916;54.346;18.562;2024-02-16T09:18:04;36.20;;;22.80;;
57023;SDS011;42916;54.346;18.562;2024-02-16T09:20:34;33.70;;;21.70;;
57023;SDS011;42916;54.346;18.562;2024-02-16T09:23:00;32.90;;;21.90;;
57023;SDS011;42916;54.346;18.562;2024-02-16T09:25:27;33.10;;;20.80;;
57023;SDS011;42916;54.346;18.562;2024-02-16T09:27:54;34.50;;;19.60;;
57023;SDS011;42916;54.346;18.562;2024-02-16T09:30:21;32.10;;;20.60;;
57023;SDS011;42916;54.346;18.562;2024-02-16T09:32:48;30.10;;;20.20;;
57023;SDS011;42916;54.346;18.562;2024-02-16T09:35:14;32.20;;;21.70;;
57023;SDS011;42916;54.346;18.562;2024-02-16T09:37:41;34.50;;;22.30;;
57023;SDS011;42916;54.346;18.562;2024-02-16T09:40:11;28.70;;;19.60;;
57023;SDS011;42916;54.346;18.562;2024-02-16T09:42:39;30.00;;;18.60;;
57023;SDS011;42916;54.346;18.562;2024-02-16T09:45:06;31.00;;;18.90;;
57023;SDS011;42916;54.346;18.562;2024-02-16T09:47:33;28.10;;;19.60;;
57023;SDS011;42916;54.346;18.562;2024-02-16T09:50:01;33.30;;;21.30;;
57023;SDS011;42916;54.346;18.562;2024-02-16T09:52:29;32.60;;;21.30;;
57023;SDS011;42916;54.346;18.562;2024-02-16T09:54:56;34.70;;;21.10;;
57023;SDS011;42916;54.346;18.562;2024-02-16T09:57:23;33.90;;;22.30;;
57023;SDS011;42916;54.346;18.562;2024-02-16T09:59:50;37.60;;;23.90;;
57023;SDS011;42916;54.346;18.562;2024-02-16T10:02:17;30.50;;;19.60;;
57023;SDS011;42916;54.346;18.562;2024-02-16T10:04:44;34.30;;;20.70;;
57023;SDS011;42916;54.346;18.562;2024-02-16T10:07:11;33.50;;;21.80;;
57023;SDS011;42916;54.346;18.562;2024-02-16T10:09:38;32.00;;;19.80;;
57023;SDS011;42916;54.346;18.562;2024-02-16T10:12:05;30.80;;;20.10;;
57023;SDS011;42916;54.346;18.562;2024-02-16T10:14:32;31.10;;;20.40;;
57023;SDS011;42916;54.346;18.562;2024-02-16T10:17:00;27.20;;;18.00;;
57023;SDS011;42916;54.346;18.562;2024-02-16T10:19:29;26.90;;;18.20;;
57023;SDS011;42916;54.346;18.562;2024-02-16T10:22:07;28.50;;;19.80;;
57023;SDS011;42916;54.346;18.562;2024-02-16T10:24:34;26.90;;;20.10;;
57023;SDS011;42916;54.346;18.562;2024-02-16T10:27:01;27.30;;;19.10;;
57023;SDS011;42916;54.346;18.562;2024-02-16T10:29:28;25.70;;;18.80;;
57023;SDS011;42916;54.346;18.562;2024-02-16T10:31:56;24.80;;;18.20;;
57023;SDS011;42916;54.346;18.562;2024-02-16T10:34:23;24.70;;;17.40;;
57023;SDS011;42916;54.346;18.562;2024-02-16T10:36:52;27.80;;;20.70;;
57023;SDS011;42916;54.346;18.562;2024-02-16T10:39:20;28.10;;;19.20;;
57023;SDS011;42916;54.346;18.562;2024-02-16T10:41:47;24.80;;;18.80;;
57023;SDS011;42916;54.346;18.562;2024-02-16T10:44:15;27.00;;;18.10;;
57023;SDS011;42916;54.346;18.562;2024-02-16T10:46:42;24.10;;;17.60;;
57023;SDS011;42916;54.346;18.562;2024-02-16T10:49:09;25.10;;;17.20;;
57023;SDS011;42916;54.346;18.562;2024-02-16T10:51:36;23.50;;;17.10;;
57023;SDS011;42916;54.346;18.562;2024-02-16T10:54:06;26.10;;;17.20;;
57023;SDS011;42916;54.346;18.562;2024-02-16T10:56:35;23.30;;;15.80;;
57023;SDS011;42916;54.346;18.562;2024-02-16T10:59:03;21.10;;;14.40;;
57023;SDS011;42916;54.346;18.562;2024-02-16T11:01:37;22.10;;;15.10;;
57023;SDS011;42916;54.346;18.562;2024-02-16T11:04:05;22.60;;;15.50;;
57023;SDS011;42916;54.346;18.562;2024-02-16T11:06:46;19.70;;;14.10;;
57023;SDS011;42916;54.346;18.562;2024-02-16T11:09:23;31.00;;;15.10;;
57023;SDS011;42916;54.346;18.562;2024-02-16T11:12:00;21.20;;;14.90;;
57023;SDS011;42916;54.346;18.562;2024-02-16T11:14:35;20.90;;;13.70;;
57023;SDS011;42916;54.346;18.562;2024-02-16T11:19:41;18.10;;;12.70;;
57023;SDS011;42916;54.346;18.562;2024-02-16T11:22:09;20.20;;;13.60;;
57023;SDS011;42916;54.346;18.562;2024-02-16T11:24:42;19.70;;;13.30;;
57023;SDS011;42916;54.346;18.562;2024-02-16T11:27:11;18.50;;;13.20;;
57023;SDS011;42916;54.346;18.562;2024-02-16T11:29:39;24.00;;;13.80;;
57023;SDS011;42916;54.346;18.562;2024-02-16T11:32:07;17.80;;;12.40;;
57023;SDS011;42916;54.346;18.562;2024-02-16T11:34:34;16.80;;;11.80;;
57023;SDS011;42916;54.346;18.562;2024-02-16T11:37:01;19.10;;;12.00;;
57023;SDS011;42916;54.346;18.562;2024-02-16T11:39:28;18.60;;;11.80;;
57023;SDS011;42916;54.346;18.562;2024-02-16T11:42:00;18.60;;;11.50;;
57023;SDS011;42916;54.346;18.562;2024-02-16T11:44:37;18.90;;;11.90;;
57023;SDS011;42916;54.346;18.562;2024-02-16T11:47:09;16.90;;;11.90;;
57023;SDS011;42916;54.346;18.562;2024-02-16T11:49:39;19.00;;;12.20;;
57023;SDS011;42916;54.346;18.562;2024-02-16T11:52:06;21.90;;;11.10;;
57023;SDS011;42916;54.346;18.562;2024-02-16T11:54:33;16.70;;;10.10;;
57023;SDS011;42916;54.346;18.562;2024-02-16T11:57:01;19.60;;;12.40;;
57023;SDS011;42916;54.346;18.562;2024-02-16T11:59:29;23.50;;;12.40;;
57023;SDS011;42916;54.346;18.562;2024-02-16T12:01:58;20.20;;;11.10;;
57023;SDS011;42916;54.346;18.562;2024-02-16T12:04:26;18.70;;;11.80;;
57023;SDS011;42916;54.346;18.562;2024-02-16T12:06:58;14.30;;;10.30;;
57023;SDS011;42916;54.346;18.562;2024-02-16T12:09:27;18.40;;;12.00;;
57023;SDS011;42916;54.346;18.562;2024-02-16T12:11:55;18.30;;;11.10;;
57023;SDS011;42916;54.346;18.562;2024-02-16T12:14:22;18.70;;;11.60;;
57023;SDS011;42916;54.346;18.562;2024-02-16T12:16:49;19.90;;;12.10;;
57023;SDS011;42916;54.346;18.562;2024-02-16T12:19:22;22.60;;;11.70;;
57023;SDS011;42916;54.346;18.562;2024-02-16T12:21:49;28.60;;;12.00;;
57023;SDS011;42916;54.346;18.562;2024-02-16T12:24:18;16.70;;;12.10;;
57023;SDS011;42916;54.346;18.562;2024-02-16T12:26:45;21.50;;;12.30;;
57023;SDS011;42916;54.346;18.562;2024-02-16T12:29:12;17.70;;;10.30;;
57023;SDS011;42916;54.346;18.562;2024-02-16T12:31:40;18.00;;;11.80;;
57023;SDS011;42916;54.346;18.562;2024-02-16T12:34:08;16.80;;;10.60;;
57023;SDS011;42916;54.346;18.562;2024-02-16T12:36:35;16.90;;;11.60;;
57023;SDS011;42916;54.346;18.562;2024-02-16T12:39:02;18.00;;;11.30;;
57023;SDS011;42916;54.346;18.562;2024-02-16T12:41:30;19.20;;;12.10;;
57023;SDS011;42916;54.346;18.562;2024-02-16T12:43:57;18.50;;;11.70;;
57023;SDS011;42916;54.346;18.562;2024-02-16T12:46:24;20.10;;;12.20;;
57023;SDS011;42916;54.346;18.562;2024-02-16T12:48:51;18.20;;;12.20;;
57023;SDS011;42916;54.346;18.562;2024-02-16T12:51:19;16.60;;;10.60;;
57023;SDS011;42916;54.346;18.562;2024-02-16T12:53:46;19.60;;;12.70;;
57023;SDS011;42916;54.346;18.562;2024-02-16T12:56:13;21.60;;;13.10;;
57023;SDS011;42916;54.346;18.562;2024-02-16T12:58:40;18.10;;;10.70;;
57023;SDS011;42916;54.346;18.562;2024-02-16T13:01:06;18.90;;;11.50;;
57023;SDS011;42916;54.346;18.562;2024-02-16T13:03:34;18.70;;;10.90;;
57023;SDS011;42916;54.346;18.562;2024-02-16T13:06:01;14.60;;;10.40;;
57023;SDS011;42916;54.346;18.562;2024-02-16T13:08:29;15.90;;;10.40;;
57023;SDS011;42916;54.346;18.562;2024-02-16T13:10:56;15.40;;;10.30;;
57023;SDS011;42916;54.346;18.562;2024-02-16T13:13:24;18.60;;;10.80;;
57023;SDS011;42916;54.346;18.562;2024-02-16T13:15:51;15.00;;;10.60;;
57023;SDS011;42916;54.346;18.562;2024-02-16T13:18:18;12.80;;;8.80;;
57023;SDS011;42916;54.346;18.562;2024-02-16T13:20:44;15.70;;;9.90;;
57023;SDS011;42916;54.346;18.562;2024-02-16T13:23:11;18.50;;;10.40;;
57023;SDS011;42916;54.346;18.562;2024-02-16T13:25:38;15.40;;;10.20;;
57023;SDS011;42916;54.346;18.562;2024-02-16T13:28:04;18.50;;;10.70;;
57023;SDS011;42916;54.346;18.562;2024-02-16T13:30:31;18.40;;;10.30;;
57023;SDS011;42916;54.346;18.562;2024-02-16T13:32:59;17.00;;;11.00;;
57023;SDS011;42916;54.346;18.562;2024-02-16T13:35:26;17.80;;;10.10;;
57023;SDS011;42916;54.346;18.562;2024-02-16T13:37:55;14.40;;;8.10;;
57023;SDS011;42916;54.346;18.562;2024-02-16T13:40:22;14.20;;;9.90;;
57023;SDS011;42916;54.346;18.562;2024-02-16T13:42:50;15.70;;;9.80;;
57023;SDS011;42916;54.346;18.562;2024-02-16T13:45:17;15.60;;;9.30;;
57023;SDS011;42916;54.346;18.562;2024-02-16T13:47:43;14.70;;;9.30;;
57023;SDS011;42916;54.346;18.562;2024-02-16T13:50:10;14.10;;;10.00;;
57023;SDS011;42916;54.346;18.562;2024-02-16T13:52:37;21.10;;;9.60;;
57023;SDS011;42916;54.346;18.562;2024-02-16T13:55:04;18.00;;;10.40;;
57023;SDS011;42916;54.346;18.562;2024-02-16T13:57:32;15.70;;;9.80;;
57023;SDS011;42916;54.346;18.562;2024-02-16T14:00:01;16.50;;;9.70;;
57023;SDS011;42916;54.346;18.562;2024-02-16T14:02:27;16.10;;;10.50;;
57023;SDS011;42916;54.346;18.562;2024-02-16T14:04:54;18.70;;;10.50;;
57023;SDS011;42916;54.346;18.562;2024-02-16T14:07:24;17.60;;;10.90;;
57023;SDS011;42916;54.346;18.562;2024-02-16T14:09:50;19.90;;;10.90;;
57023;SDS011;42916;54.346;18.562;2024-02-16T14:12:17;16.60;;;11.10;;
57023;SDS011;42916;54.346;18.562;2024-02-16T14:14:44;17.00;;;11.40;;